Portada
METAR-TAF:

METAR-TAF

Aeroports :

Grenchen, Suïssa

latitud: 47-10-53N, longitud: 007-24-59E, altitud: 430 m

Observació

L'informe es va fer fa 17 minuts, a les 22:20 UTC
Vent 1 kt del Est/Nord-Est
Temperatura 16°C
Humitat 94%
Pressió 1020 hPa
Visibilitat: 3300 m
boirina

METAR: LSZG 242220Z AUTO 07001KT 3300 BR NSC 16/15 Q1020

Hora: 00:37 (22:37 UTC)

Pronòstic

L'informe es va fer fa 8 hores i 12 minuts, a les 14:25 UTC
Pronòstic vàlid del 24 a les 15 UTC al 24 a les 24 UTC
Vent 2 kt amb direcció variable
Visibilitat 10 km o més
Escasses núvols a una alçada de 4000 ft
Evolucionant progressivament
l' 24 a les 15 UTC al 24 a les 17 UTC
Visibilitat 10 km o més
sense núvols per sota de 1500 mi sense presència de cumulonimbus.
Evolucionant progressivament
l' 24 a les 21 UTC al 24 a les 24 UTC
Visibilitat: 2000 m
boira en bancs

TAF: LSZG 241425Z 2415/2424 VRB02KT 9999 FEW040 BECMG 2415/2417 CAVOK BECMG 2421/2424 2000 BCFG

Observacions i pronòstics meteorològics de més de 4000 aeroports (METAR i TAF).

Les estacions disponibles són els punts grocs i vermells al mapa.

Posi el ratolí al punt desitjat per veure el nom de l'estació.

Feu clic per veure les observacions i els pronòstics meteorològics.

Per canviar el mapa: feu clic els botons verds amb una creu de color negre per apropar; al botó verd amb un guió per allunyar la imatge; o en les fletxes verdes per a mapes adjacents.


METAR-TAF: